Time;durP1;ratioP1;P1;durP2;ratioP2;P2;SDS_P1;SDS_P2;PMS_P1;PMS_P2;Temp;Humidity;BMP_temperature;BMP_pressure;BME280_temperature;BME280_humidity;BME280_pressure;Samples;Min_cycle;Max_cycle;Signal;HPM_P1;HPM_P2
2022/11/20 00:00:24;;;;;;;11.93;5.10;;;;;;;1.45;50.81;101326.19;5008173;28;20040;-67
2022/11/20 00:02:50;;;;;;;19.15;9.65;;;;;;;1.42;50.65;101321.03;5023486;28;20080;-68
2022/11/20 00:05:15;;;;;;;24.80;11.50;;;;;;;1.35;51.10;101319.25;5021895;28;20197;-69
2022/11/20 00:07:40;;;;;;;22.17;9.25;;;;;;;1.41;50.80;101311.56;5011481;28;20604;-68
2022/11/20 00:10:06;;;;;;;19.80;7.32;;;;;;;1.48;50.51;101309.88;5023690;28;20604;-68
2022/11/20 00:12:32;;;;;;;8.38;4.07;;;;;;;1.44;50.62;101303.84;5023302;28;20045;-69
2022/11/20 00:14:59;;;;;;;7.47;3.33;;;;;;;1.48;50.95;101300.44;5025147;28;20502;-68
2022/11/20 00:17:25;;;;;;;5.13;3.17;;;;;;;1.47;50.44;101301.28;5009308;28;20056;-68
2022/11/20 00:19:51;;;;;;;7.47;3.38;;;;;;;1.40;50.64;101307.28;5023532;28;20204;-67
2022/11/20 00:22:16;;;;;;;8.95;2.58;;;;;;;1.39;50.62;101300.34;5016452;28;20045;-67
2022/11/20 00:24:42;;;;;;;6.88;2.95;;;;;;;1.34;50.45;101307.19;4991050;28;20159;-68
2022/11/20 00:27:09;;;;;;;7.65;3.13;;;;;;;1.25;50.75;101304.56;5005708;28;20091;-69
2022/11/20 00:29:35;;;;;;;5.53;2.78;;;;;;;1.21;50.98;101310.56;4998052;28;20048;-68
2022/11/20 00:32:00;;;;;;;3.85;2.25;;;;;;;1.27;50.85;101302.88;5024127;28;20950;-67
2022/11/20 00:34:26;;;;;;;5.50;2.85;;;;;;;1.23;50.60;101303.69;4995918;28;20408;-69
2022/11/20 00:36:51;;;;;;;4.95;2.75;;;;;;;1.19;50.86;101294.22;5011841;28;23065;-68
2022/11/20 00:39:19;;;;;;;8.60;3.17;;;;;;;1.25;51.04;101304.56;5021808;28;20104;-69
2022/11/20 00:41:44;;;;;;;6.53;3.60;;;;;;;1.23;50.68;101304.56;5020980;28;20112;-69
2022/11/20 00:44:09;;;;;;;5.57;2.40;;;;;;;1.19;51.18;101305.38;5006788;28;20037;-68
2022/11/20 00:46:35;;;;;;;4.30;2.63;;;;;;;1.14;51.07;101299.34;4989785;28;20041;-70
2022/11/20 00:49:01;;;;;;;5.95;2.42;;;;;;;1.06;51.49;101304.47;4996155;28;20039;-68
2022/11/20 00:51:27;;;;;;;4.45;3.08;;;;;;;1.07;51.54;101298.47;4994441;28;20048;-67
2022/11/20 00:53:55;;;;;;;5.45;2.60;;;;;;;1.17;51.40;101298.50;5024044;28;20151;-67
2022/11/20 00:56:20;;;;;;;6.25;2.38;;;;;;;1.14;51.24;101288.19;5008405;28;20505;-66
2022/11/20 00:58:48;;;;;;;4.07;2.30;;;;;;;1.24;50.94;101290.00;4996422;28;20056;-66
2022/11/20 01:01:19;;;;;;;4.32;2.58;;;;;;;1.30;51.14;101284.84;5003001;28;20112;-66
2022/11/20 01:03:49;;;;;;;4.65;1.58;;;;;;;1.32;51.28;101288.28;5002568;28;20045;-67
2022/11/20 01:06:23;;;;;;;4.72;1.60;;;;;;;1.28;51.31;101287.44;5004294;28;20036;-66
2022/11/20 01:08:50;;;;;;;2.72;1.55;;;;;;;1.29;51.01;101291.72;5020263;28;20478;-65
2022/11/20 01:11:18;;;;;;;2.72;1.38;;;;;;;1.27;50.88;101287.41;5026090;28;20600;-65
2022/11/20 01:13:48;;;;;;;1.83;1.17;;;;;;;1.15;50.91;101283.06;5020144;28;20056;-68
2022/11/20 01:16:17;;;;;;;5.32;1.08;;;;;;;1.07;50.85;101288.16;5023613;28;20297;-70
2022/11/20 01:18:44;;;;;;;3.20;1.23;;;;;;;0.92;51.25;101279.47;5021216;28;20041;-73
2022/11/20 01:21:19;;;;;;;2.15;0.98;;;;;;;0.95;51.24;101282.94;5003988;28;20043;-72
2022/11/20 01:23:45;;;;;;;2.33;1.00;;;;;;;0.89;51.52;101298.34;5020966;28;20155;-74
2022/11/20 01:26:13;;;;;;;2.67;0.70;;;;;;;0.99;51.35;101295.00;5024206;28;20033;-74
2022/11/20 01:28:39;;;;;;;2.47;1.10;;;;;;;1.07;51.44;101293.31;5025357;28;20036;-73
2022/11/20 01:31:35;;;;;;;4.88;1.00;;;;;;;1.05;51.03;101279.56;5025387;28;20033;-74
2022/11/20 01:34:13;;;;;;;1.00;0.40;;;;;;;0.98;51.47;101282.97;4971867;28;20518;-73
2022/11/20 01:36:42;;;;;;;1.00;0.40;;;;;;;0.80;51.46;101272.53;4989142;28;20033;-71
2022/11/20 01:39:13;;;;;;;3.13;0.43;;;;;;;1.01;51.58;101275.25;5002486;28;20044;-70
2022/11/20 01:44:43;;;;;;;1.23;0.38;;;;;;;1.09;51.22;101276.16;5001512;28;20846;-68
2022/11/20 01:47:11;;;;;;;2.38;0.55;;;;;;;1.14;51.28;101267.59;4987715;28;20128;-68
2022/11/20 01:49:42;;;;;;;2.60;0.50;;;;;;;1.10;51.07;101262.44;5002241;28;20076;-69
2022/11/20 01:52:15;;;;;;;0.77;0.28;;;;;;;1.26;51.13;101262.50;5010568;28;20890;-69
2022/11/20 01:54:52;;;;;;;0.88;0.38;;;;;;;1.16;50.58;101260.75;5003045;28;20039;-69
2022/11/20 01:57:20;;;;;;;2.28;0.75;;;;;;;1.09;51.08;101255.56;4985970;28;20094;-72
2022/11/20 01:59:56;;;;;;;1.00;0.50;;;;;;;1.21;51.00;101251.34;5004710;28;20032;-68
2022/11/20 02:02:22;;;;;;;1.17;0.57;;;;;;;1.24;50.95;101248.78;5004734;28;20532;-68
2022/11/20 02:04:53;;;;;;;2.05;0.52;;;;;;;1.28;50.76;101253.06;5018522;28;20048;-69
2022/11/20 02:07:20;;;;;;;1.38;0.47;;;;;;;1.30;50.61;101249.69;5023034;28;20394;-67
2022/11/20 02:09:46;;;;;;;2.30;0.57;;;;;;;1.28;50.83;101242.78;5019230;28;20071;-70
2022/11/20 02:13:42;;;;;;;1.75;0.60;;;;;;;1.01;50.62;101235.78;5021940;28;20127;-68
2022/11/20 02:14:57;;;;;;;5.07;1.15;;;;;;;1.08;51.22;101238.41;5019648;28;20041;-68
2022/11/20 02:17:24;;;;;;;2.65;0.73;;;;;;;1.08;51.31;101232.38;5023785;28;20146;-74
2022/11/20 02:19:52;;;;;;;3.30;0.98;;;;;;;1.07;51.16;101231.53;5007789;28;20033;-73
2022/11/20 02:22:24;;;;;;;3.83;1.17;;;;;;;0.96;51.07;101225.47;5013333;28;20300;-74
2022/11/20 02:24:51;;;;;;;2.08;1.20;;;;;;;1.07;50.98;101230.66;5002486;28;20040;-74
2022/11/20 02:27:17;;;;;;;3.65;1.33;;;;;;;1.09;50.80;101231.53;4995837;28;20041;-73
2022/11/20 02:29:50;;;;;;;5.85;1.52;;;;;;;1.16;51.14;101237.59;5008723;28;20914;-75
2022/11/20 02:32:42;;;;;;;2.97;0.90;;;;;;;1.18;50.95;101233.31;4988740;28;20068;-74
2022/11/20 02:35:20;;;;;;;3.40;0.88;;;;;;;1.09;50.74;101226.38;4996205;28;20140;-74
2022/11/20 02:37:49;;;;;;;3.05;1.38;;;;;;;1.17;51.05;101232.44;5019823;28;20099;-75
2022/11/20 02:40:15;;;;;;;1.92;0.90;;;;;;;1.24;51.14;101234.19;5009038;28;20583;-73
2022/11/20 02:42:40;;;;;;;3.03;1.15;;;;;;;1.14;50.91;101231.56;4988225;28;20214;-73
2022/11/20 02:45:06;;;;;;;6.10;1.98;;;;;;;1.13;51.08;101235.84;5010617;28;20466;-71
2022/11/20 02:47:32;;;;;;;5.90;1.80;;;;;;;1.05;51.46;101222.94;5010772;28;20045;-71
2022/11/20 02:49:59;;;;;;;4.50;2.08;;;;;;;1.09;51.23;101226.38;5021528;28;20036;-71
2022/11/20 02:52:25;;;;;;;2.33;1.02;;;;;;;0.94;51.66;101227.16;5020682;28;20046;-70
2022/11/20 02:54:54;;;;;;;2.58;1.40;;;;;;;0.87;52.20;101222.84;5021379;28;20784;-69
2022/11/20 02:57:19;;;;;;;6.60;1.85;;;;;;;1.00;51.82;101227.19;5005430;28;20040;-69
2022/11/20 02:59:48;;;;;;;5.15;2.40;;;;;;;0.74;52.63;101226.19;5022880;28;20164;-69
2022/11/20 03:02:15;;;;;;;4.18;1.88;;;;;;;0.87;52.55;101220.25;5022588;28;20613;-68
2022/11/20 03:04:41;;;;;;;2.85;1.58;;;;;;;0.91;52.49;101216.84;5026630;28;20077;-69
2022/11/20 03:07:08;;;;;;;3.22;0.98;;;;;;;0.80;52.92;101211.66;5026261;28;20775;-68
2022/11/20 03:09:33;;;;;;;2.60;1.30;;;;;;;0.96;52.81;101206.59;5025430;28;20033;-68
2022/11/20 03:11:59;;;;;;;2.55;1.08;;;;;;;0.97;52.66;101204.03;5022238;28;20168;-69
2022/11/20 03:14:25;;;;;;;4.65;1.38;;;;;;;0.59;53.73;101202.09;5022128;28;20088;-70
2022/11/20 03:16:50;;;;;;;3.20;0.98;;;;;;;0.74;53.40;101203.03;5010050;28;20041;-69
2022/11/20 03:19:16;;;;;;;2.90;1.33;;;;;;;0.88;53.03;101198.81;4997051;28;20061;-68
2022/11/20 03:21:41;;;;;;;3.97;1.20;;;;;;;0.90;53.18;101195.41;5022946;28;20232;-69
2022/11/20 03:24:07;;;;;;;8.30;1.50;;;;;;;0.82;53.34;101196.22;5008364;28;20049;-70
2022/11/20 03:26:33;;;;;;;4.80;1.30;;;;;;;0.94;53.21;101198.00;5023500;28;21128;-68
2022/11/20 03:29:00;;;;;;;3.15;1.35;;;;;;;0.95;53.06;101189.41;5023766;28;20106;-68
2022/11/20 03:31:30;;;;;;;2.72;1.00;;;;;;;0.91;52.68;101185.97;5018659;28;20431;-68
2022/11/20 03:33:58;;;;;;;3.65;1.13;;;;;;;0.87;52.63;101186.81;5023782;28;20052;-68
2022/11/20 03:36:25;;;;;;;4.43;1.65;;;;;;;0.77;53.42;101190.16;5004027;28;20041;-68
2022/11/20 03:38:50;;;;;;;2.58;1.48;;;;;;;0.75;53.71;101186.72;5023370;28;20057;-69
2022/11/20 03:41:27;;;;;;;2.42;2.00;;;;;;;0.63;53.83;101188.38;5003899;28;20029;-69
2022/11/20 03:44:04;;;;;;;5.47;1.67;;;;;;;0.73;53.41;101179.03;5008082;28;20569;-68
2022/11/20 03:46:30;;;;;;;2.88;1.65;;;;;;;0.46;54.09;101175.41;5009151;28;20033;-71
2022/11/20 03:48:56;;;;;;;6.05;2.38;;;;;;;0.50;53.98;101163.41;5009081;28;20075;-72
2022/11/20 03:51:24;;;;;;;6.63;3.10;;;;;;;0.41;53.86;101171.06;5025133;28;20115;-72
2022/11/20 03:53:54;;;;;;;5.72;2.83;;;;;;;0.35;53.73;101165.91;5010473;28;20049;-71
2022/11/20 03:56:31;;;;;;;7.25;3.20;;;;;;;0.44;53.54;101160.84;5021316;28;20526;-72
2022/11/20 03:58:57;;;;;;;8.40;3.30;;;;;;;0.22;53.74;101163.25;5011151;28;20049;-72
2022/11/20 04:01:43;;;;;;;6.20;2.78;;;;;;;0.31;53.78;101164.16;5021832;28;20922;-72
2022/11/20 04:04:08;;;;;;;5.00;2.83;;;;;;;0.41;53.49;101160.78;5010466;28;20045;-71
2022/11/20 04:06:36;;;;;;;6.68;3.00;;;;;;;0.24;53.38;101163.25;5004411;28;20039;-71
2022/11/20 04:09:02;;;;;;;5.82;2.25;;;;;;;0.53;53.10;101160.88;5026450;28;20108;-72
2022/11/20 04:11:33;;;;;;;4.93;2.58;;;;;;;0.58;52.76;101154.06;5024863;28;20039;-72
2022/11/20 04:14:03;;;;;;;6.95;3.17;;;;;;;0.60;52.97;101157.50;5009121;28;20037;-71
2022/11/20 04:16:31;;;;;;;5.20;2.33;;;;;;;0.75;52.41;101158.41;5005829;28;20055;-70
2022/11/20 04:18:59;;;;;;;4.20;2.33;;;;;;;0.57;52.82;101157.50;5023030;28;20070;-70
2022/11/20 04:21:26;;;;;;;8.27;3.08;;;;;;;0.64;52.58;101148.09;5022880;28;20075;-69
2022/11/20 04:23:55;;;;;;;4.57;2.45;;;;;;;0.58;52.40;101145.47;5023704;28;20059;-69
2022/11/20 04:26:22;;;;;;;6.32;2.00;;;;;;;0.50;53.27;101150.56;5012810;28;20040;-70
2022/11/20 04:28:48;;;;;;;4.22;2.42;;;;;;;0.62;52.93;101140.34;5001656;28;20494;-69
2022/11/20 04:31:16;;;;;;;3.22;1.92;;;;;;;0.69;52.70;101136.97;5011853;28;20029;-69
2022/11/20 04:33:42;;;;;;;3.60;2.50;;;;;;;0.71;52.82;101133.56;5024514;28;20167;-69
2022/11/20 04:36:13;;;;;;;5.22;2.20;;;;;;;0.63;52.56;101136.91;5013858;28;20029;-75
2022/11/20 04:38:39;;;;;;;4.63;1.00;;;;;;;0.21;54.30;101134.94;4990456;28;20450;-68
2022/11/20 04:41:09;;;;;;;4.10;1.90;;;;;;;0.28;53.50;101134.16;5027826;28;20044;-72
2022/11/20 04:43:35;;;;;;;6.30;2.47;;;;;;;0.44;53.42;101129.97;5020118;28;20053;-71
2022/11/20 04:46:01;;;;;;;4.40;2.00;;;;;;;0.62;53.06;101135.22;5013033;28;20043;-72
2022/11/20 04:48:28;;;;;;;5.80;2.25;;;;;;;0.61;53.05;101128.38;5002472;28;20347;-71
2022/11/20 04:50:54;;;;;;;3.72;1.80;;;;;;;0.45;53.00;101131.69;5006451;28;20135;-71
2022/11/20 04:53:20;;;;;;;3.10;1.80;;;;;;;0.14;54.33;101136.59;5010154;28;20060;-68
2022/11/20 04:55:46;;;;;;;2.97;1.42;;;;;;;0.32;53.80;101135.03;5002201;28;20124;-68
2022/11/20 04:58:12;;;;;;;3.13;1.52;;;;;;;0.42;53.27;101135.09;4997301;28;20432;-67
2022/11/20 05:00:38;;;;;;;3.03;1.70;;;;;;;0.47;53.13;101140.25;4991546;28;20036;-68
2022/11/20 05:03:03;;;;;;;3.70;1.63;;;;;;;0.47;52.92;101146.25;5009103;28;20033;-70
2022/11/20 05:05:29;;;;;;;5.40;2.10;;;;;;;0.52;53.24;101141.16;5022835;28;20570;-68
2022/11/20 05:07:58;;;;;;;2.85;1.77;;;;;;;0.46;53.37;101141.13;5021678;28;20045;-69
2022/11/20 05:10:25;;;;;;;6.10;2.03;;;;;;;0.62;53.06;101137.78;5022714;28;20045;-68
2022/11/20 05:12:50;;;;;;;2.88;1.00;;;;;;;0.61;53.11;101138.66;5021284;28;20074;-68
2022/11/20 05:15:16;;;;;;;2.55;1.25;;;;;;;0.58;52.66;101141.19;4989661;28;20638;-68
2022/11/20 05:17:49;;;;;;;9.63;2.35;;;;;;;0.59;53.01;101139.47;5021067;28;20498;-67
2022/11/20 05:20:14;;;;;;;5.75;1.50;;;;;;;0.60;53.16;101136.91;5011159;28;20204;-66
2022/11/20 05:22:39;;;;;;;8.50;2.03;;;;;;;0.71;53.23;101133.56;5002293;28;20585;-66
2022/11/20 05:25:05;;;;;;;2.83;1.33;;;;;;;0.75;53.06;101130.13;5022372;28;20040;-68
2022/11/20 05:27:31;;;;;;;2.92;1.35;;;;;;;0.76;52.73;101131.84;5024221;28;20048;-67
2022/11/20 05:29:56;;;;;;;4.55;1.80;;;;;;;0.78;53.28;101125.00;5011727;28;20512;-66
2022/11/20 05:32:25;;;;;;;3.60;1.27;;;;;;;0.71;53.29;101118.13;5008788;28;20156;-66
2022/11/20 05:34:52;;;;;;;3.45;1.52;;;;;;;0.80;53.10;101118.16;5023926;28;20361;-66
2022/11/20 05:37:18;;;;;;;2.47;1.35;;;;;;;0.75;53.27;101119.81;5021835;28;20613;-68
2022/11/20 05:39:45;;;;;;;4.38;1.73;;;;;;;0.62;53.59;101116.34;5004132;28;20139;-68
2022/11/20 05:44:56;;;;;;;3.72;1.65;;;;;;;0.66;53.81;101111.22;5023566;28;20036;-68
2022/11/20 05:47:24;;;;;;;3.22;1.05;;;;;;;0.64;53.52;101105.22;5021898;28;20064;-69
2022/11/20 05:49:49;;;;;;;4.95;2.08;;;;;;;0.66;53.79;101098.38;5012181;28;20108;-67
2022/11/20 05:52:15;;;;;;;8.18;3.08;;;;;;;0.65;53.52;101095.78;5025047;28;20565;-67
2022/11/20 05:54:40;;;;;;;10.45;3.75;;;;;;;0.51;53.42;101100.84;5010592;28;20040;-68
2022/11/20 05:57:06;;;;;;;7.93;3.40;;;;;;;0.68;53.53;101094.09;5007719;28;20067;-68
2022/11/20 05:59:31;;;;;;;4.20;2.45;;;;;;;0.60;53.62;101093.19;5023231;28;20048;-77
2022/11/20 06:01:57;;;;;;;4.10;1.83;;;;;;;0.48;53.85;101081.13;5025177;28;20041;-77
2022/11/20 06:04:22;;;;;;;4.72;2.28;;;;;;;0.39;53.88;101080.19;4996476;28;20843;-67
2022/11/20 06:06:50;;;;;;;3.67;1.70;;;;;;;0.56;53.98;101078.59;5019447;28;20632;-67
2022/11/20 06:09:15;;;;;;;3.15;1.65;;;;;;;0.62;53.38;101076.03;5021508;28;20485;-66
2022/11/20 06:11:41;;;;;;;2.33;1.10;;;;;;;0.21;54.10;101076.69;5020393;28;20152;-69
2022/11/20 06:14:06;;;;;;;2.70;1.42;;;;;;;0.42;53.98;101075.94;5007992;28;20032;-67
2022/11/20 06:16:31;;;;;;;4.03;1.85;;;;;;;0.38;54.17;101078.50;5020362;28;20028;-68
2022/11/20 06:18:57;;;;;;;2.15;1.30;;;;;;;0.32;54.69;101075.88;5019986;28;20167;-66
2022/11/20 06:21:23;;;;;;;2.95;1.80;;;;;;;0.46;54.40;101071.69;5020897;28;20693;-65
2022/11/20 06:23:50;;;;;;;4.15;1.98;;;;;;;0.42;54.17;101080.25;5019598;28;20464;-68
2022/11/20 06:26:18;;;;;;;4.57;1.70;;;;;;;0.29;54.19;101079.31;5012457;28;20036;-67
2022/11/20 06:28:44;;;;;;;6.95;1.58;;;;;;;0.18;54.92;101074.09;5004960;28;20620;-68
2022/11/20 06:31:11;;;;;;;4.57;1.92;;;;;;;0.41;54.29;101078.50;5024388;28;20057;-68
2022/11/20 06:33:40;;;;;;;2.72;1.42;;;;;;;0.33;54.57;101083.63;5011094;28;20033;-68
2022/11/20 06:36:06;;;;;;;4.93;1.88;;;;;;;0.39;54.55;101088.81;5013044;28;20136;-68
2022/11/20 06:38:31;;;;;;;4.28;1.67;;;;;;;0.54;54.38;101093.16;5024774;28;20695;-67
2022/11/20 06:40:57;;;;;;;3.30;1.45;;;;;;;0.46;54.16;101098.25;5025574;28;20041;-67
2022/11/20 06:43:23;;;;;;;3.33;1.23;;;;;;;0.35;54.50;101109.34;5024516;28;20040;-69
2022/11/20 06:45:55;;;;;;;3.50;1.27;;;;;;;0.37;54.73;101099.94;5026347;28;20044;-68
2022/11/20 06:48:22;;;;;;;3.72;1.00;;;;;;;0.43;54.63;101103.38;5006562;28;20065;-68
2022/11/20 06:50:47;;;;;;;5.13;0.82;;;;;;;0.18;54.99;101107.50;5027184;28;20075;-68
2022/11/20 06:53:13;;;;;;;2.58;0.73;;;;;;;0.20;55.36;101104.97;5010455;28;20073;-68
2022/11/20 06:55:45;;;;;;;2.60;0.68;;;;;;;0.35;54.91;101099.06;4993512;28;20094;-69
2022/11/20 06:58:11;;;;;;;1.27;0.57;;;;;;;0.21;55.21;101097.25;5026243;28;20045;-69
2022/11/20 07:00:36;;;;;;;2.10;0.88;;;;;;;0.35;55.08;101092.19;5023475;28;20418;-68
2022/11/20 07:03:03;;;;;;;1.38;0.40;;;;;;;0.39;54.79;101088.81;5005894;28;20053;-67
2022/11/20 07:05:29;;;;;;;1.35;0.45;;;;;;;0.37;54.83;101087.06;5013763;28;20041;-67
2022/11/20 07:07:56;;;;;;;1.73;0.65;;;;;;;0.24;55.11;101086.13;5024782;28;20068;-69
2022/11/20 07:10:21;;;;;;;1.95;0.68;;;;;;;0.12;55.59;101081.75;5026155;28;20084;-68
2022/11/20 07:12:51;;;;;;;1.83;0.63;;;;;;;0.15;55.43;101076.66;4996749;28;20569;-68
2022/11/20 07:15:24;;;;;;;1.60;0.60;;;;;;;0.30;55.06;101077.59;5023957;28;20109;-66
2022/11/20 07:17:49;;;;;;;1.80;0.75;;;;;;;0.30;54.92;101085.28;5020747;28;20687;-69
2022/11/20 07:20:15;;;;;;;2.92;0.88;;;;;;;0.45;54.79;101085.38;5006454;28;20030;-66
2022/11/20 07:22:41;;;;;;;1.33;0.40;;;;;;;0.52;54.49;101082.00;5025579;28;20140;-67
2022/11/20 07:25:08;;;;;;;1.75;0.68;;;;;;;0.52;54.69;101087.13;5013033;28;20038;-68
2022/11/20 07:27:34;;;;;;;1.73;0.45;;;;;;;0.58;54.83;101086.31;5007611;28;20036;-71
2022/11/20 07:30:00;;;;;;;2.22;0.73;;;;;;;0.61;54.54;101084.63;5025596;28;20029;-71
2022/11/20 07:32:26;;;;;;;3.58;0.60;;;;;;;0.72;54.60;101088.94;5025946;28;20048;-69
2022/11/20 07:34:55;;;;;;;2.10;0.75;;;;;;;0.70;54.35;101086.34;5025309;28;20037;-70
2022/11/20 07:37:20;;;;;;;3.15;1.00;;;;;;;0.65;54.47;101088.91;5009204;28;20061;-70
2022/11/20 07:39:45;;;;;;;1.55;0.50;;;;;;;0.65;54.56;101088.91;5010737;28;20033;-69
2022/11/20 07:42:12;;;;;;;2.40;0.52;;;;;;;0.63;54.47;101088.03;5024899;28;20136;-70
2022/11/20 07:44:39;;;;;;;4.95;1.15;;;;;;;0.71;54.47;101084.66;5008288;28;20132;-69
2022/11/20 07:47:04;;;;;;;2.22;0.65;;;;;;;0.80;54.14;101082.13;5024104;28;20138;-69
2022/11/20 07:49:30;;;;;;;1.65;0.70;;;;;;;0.83;54.25;101087.28;5012796;28;20509;-71
2022/11/20 07:51:55;;;;;;;1.95;0.70;;;;;;;0.91;54.33;101080.47;5004941;28;20152;-69
2022/11/20 07:54:22;;;;;;;1.48;0.73;;;;;;;1.01;54.46;101081.34;5024344;28;20033;-69
2022/11/20 07:56:48;;;;;;;1.85;0.90;;;;;;;1.05;54.49;101081.34;5004705;28;20071;-67
2022/11/20 07:59:13;;;;;;;3.05;1.13;;;;;;;1.09;53.98;101090.81;5021310;28;20037;-68
2022/11/20 08:01:40;;;;;;;4.15;1.30;;;;;;;1.15;54.36;101078.78;5023652;28;20032;-67
2022/11/20 08:04:06;;;;;;;3.38;1.17;;;;;;;1.14;54.10;101084.81;5022347;28;20148;-67
2022/11/20 08:06:32;;;;;;;2.97;1.40;;;;;;;1.15;54.07;101084.81;5023898;28;20037;-69
2022/11/20 08:08:57;;;;;;;3.90;2.03;;;;;;;1.09;53.69;101077.94;5023294;28;20055;-67
2022/11/20 08:14:11;;;;;;;2.33;1.38;;;;;;;0.85;54.21;101068.41;5023215;28;20095;-68
2022/11/20 08:16:41;;;;;;;5.55;3.05;;;;;;;0.78;54.49;101074.41;5005962;28;20070;-68
2022/11/20 08:19:07;;;;;;;7.03;2.53;;;;;;;0.87;54.27;101074.44;5008093;28;20036;-69
2022/11/20 08:21:33;;;;;;;2.75;1.52;;;;;;;0.86;54.50;101074.44;5021356;28;20033;-67
2022/11/20 08:23:59;;;;;;;6.80;2.45;;;;;;;0.98;54.30;101071.88;5009294;28;20464;-67
2022/11/20 08:26:25;;;;;;;5.20;2.40;;;;;;;1.08;54.18;101068.50;5023638;28;21017;-69
2022/11/20 08:28:57;;;;;;;4.68;2.58;;;;;;;1.06;53.67;101075.34;5005643;28;20033;-68
2022/11/20 08:31:23;;;;;;;;;;;;;;;1.17;53.67;101080.53;5021568;28;20037;-68
2022/11/20 08:33:49;;;;;;;4.15;2.45;;;;;;;1.10;53.62;101079.66;5006223;28;19931;-68
2022/11/20 08:36:15;;;;;;;7.68;2.33;;;;;;;1.03;53.66;101080.47;5009185;28;20080;-69
2022/11/20 08:38:40;;;;;;;4.43;2.58;;;;;;;1.16;53.72;101086.53;5020049;28;20034;-67
2022/11/20 08:41:25;;;;;;;5.15;2.47;;;;;;;1.20;53.95;101093.41;5027128;28;20556;-68
2022/11/20 08:44:03;;;;;;;4.68;1.92;;;;;;;1.42;53.82;101093.50;5004138;28;20048;-67
2022/11/20 08:46:39;;;;;;;3.17;1.65;;;;;;;1.41;53.29;101092.59;4999280;28;20084;-67
2022/11/20 08:49:09;;;;;;;2.92;1.90;;;;;;;1.70;53.60;101091.78;5024370;28;20658;-66
2022/11/20 08:51:35;;;;;;;9.23;3.33;;;;;;;1.82;53.19;101098.66;5026585;28;20048;-68
2022/11/20 08:54:04;;;;;;;6.38;3.33;;;;;;;1.86;52.31;101100.38;5006915;28;20304;-66
2022/11/20 08:56:29;;;;;;;6.22;2.40;;;;;;;1.92;52.73;101090.91;5023900;28;20041;-68
2022/11/20 08:58:55;;;;;;;4.45;2.20;;;;;;;1.84;52.10;101092.66;5009018;28;20052;-67
2022/11/20 09:01:22;;;;;;;4.93;1.80;;;;;;;1.91;52.37;101086.63;5012269;28;20284;-67
2022/11/20 09:03:48;;;;;;;5.90;2.30;;;;;;;1.77;51.30;101084.91;5001716;28;20045;-68
2022/11/20 09:06:14;;;;;;;5.22;1.90;;;;;;;1.90;52.20;101074.59;5026090;28;20497;-70
2022/11/20 09:08:40;;;;;;;3.83;1.50;;;;;;;2.09;52.31;101082.34;5010923;28;20049;-67
2022/11/20 09:11:06;;;;;;;5.75;2.38;;;;;;;2.20;52.38;101085.75;5024340;28;20413;-67
2022/11/20 09:13:34;;;;;;;10.25;5.28;;;;;;;2.79;52.76;101081.25;5021419;28;20088;-67
2022/11/20 09:16:06;;;;;;;6.15;3.28;;;;;;;3.83;51.40;101064.25;5003700;28;20032;-67
2022/11/20 09:18:33;;;;;;;2.95;1.73;;;;;;;4.18;47.64;101060.47;5022833;28;20270;-67
2022/11/20 09:21:00;;;;;;;3.80;1.80;;;;;;;4.21;48.03;101063.03;5022022;28;20048;-68
2022/11/20 09:23:31;;;;;;;6.32;1.67;;;;;;;3.66;48.09;101064.41;5020626;28;20148;-68
2022/11/20 09:25:59;;;;;;;5.13;1.92;;;;;;;3.52;47.97;101064.50;5022405;28;20410;-66
2022/11/20 09:28:26;;;;;;;8.15;2.35;;;;;;;3.78;48.11;101066.00;5018141;28;20552;-68
2022/11/20 09:30:51;;;;;;;5.18;2.10;;;;;;;3.76;47.20;101073.81;5021114;28;20489;-68
2022/11/20 09:33:17;;;;;;;4.30;1.83;;;;;;;3.45;46.96;101078.34;5021257;28;20041;-67
2022/11/20 09:35:43;;;;;;;3.83;1.77;;;;;;;3.21;48.30;101075.91;5021763;28;20103;-68
2022/11/20 09:38:10;;;;;;;3.25;1.80;;;;;;;2.90;47.98;101076.06;5008767;28;20037;-69
2022/11/20 09:40:40;;;;;;;3.70;1.63;;;;;;;2.97;48.70;101076.00;5016810;28;20530;-68
2022/11/20 09:43:27;;;;;;;6.38;2.55;;;;;;;3.22;49.12;101073.28;5019992;28;20056;-69
2022/11/20 09:46:38;;;;;;;4.05;1.95;;;;;;;3.25;47.34;101075.88;5020768;28;20739;-71
2022/11/20 09:49:22;;;;;;;9.05;3.65;;;;;;;3.29;47.77;101075.00;4942151;28;20043;-69
2022/11/20 09:51:57;;;;;;;5.65;1.75;;;;;;;3.41;48.60;101076.66;5014645;28;20098;-68
2022/11/20 09:54:29;;;;;;;5.53;2.85;;;;;;;3.50;47.29;101070.56;5002853;28;20607;-70
2022/11/20 09:57:03;;;;;;;4.65;1.80;;;;;;;3.41;47.25;101075.78;5017606;28;20037;-70
2022/11/20 09:59:40;;;;;;;17.55;3.78;;;;;;;3.27;48.47;101073.25;5005932;28;20699;-67
2022/11/20 10:02:19;;;;;;;3.90;2.42;;;;;;;3.14;48.35;101075.91;5019115;28;21001;-69
2022/11/20 10:04:52;;;;;;;4.22;2.78;;;;;;;3.35;47.88;101071.50;5020589;28;20083;-70
2022/11/20 10:07:32;;;;;;;3.25;2.40;;;;;;;3.24;46.95;101068.13;5016949;28;20053;-68
2022/11/20 10:10:01;;;;;;;5.47;2.55;;;;;;;3.24;47.55;101068.97;5019525;28;20039;-67
2022/11/20 10:13:04;;;;;;;3.63;2.45;;;;;;;3.30;47.81;101055.19;5007051;28;20058;-69
2022/11/20 10:15:52;;;;;;;3.90;1.70;;;;;;;3.15;46.65;101058.69;4994663;28;20137;-68
2022/11/20 10:18:28;;;;;;;4.53;2.28;;;;;;;3.02;48.48;101068.22;5015669;28;20045;-69
2022/11/20 10:21:02;;;;;;;5.90;2.13;;;;;;;3.10;47.95;101055.28;5017889;28;20045;-68
2022/11/20 10:23:42;;;;;;;3.97;1.50;;;;;;;2.79;48.22;101055.44;5017304;28;20045;-67
2022/11/20 10:26:41;;;;;;;5.07;2.03;;;;;;;2.95;49.08;101058.81;5001376;28;20041;-67
2022/11/20 10:29:16;;;;;;;3.38;2.13;;;;;;;2.97;48.45;101054.50;5007870;28;20099;-67
2022/11/20 10:31:56;;;;;;;4.63;2.85;;;;;;;3.07;48.39;101048.41;5013576;28;20942;-69
2022/11/20 10:34:51;;;;;;;7.50;3.60;;;;;;;3.17;48.02;101046.63;5024800;28;20033;-71
2022/11/20 10:37:25;;;;;;;11.15;6.53;;;;;;;3.23;48.30;101045.75;5020502;28;20874;-70
2022/11/20 10:40:18;;;;;;;4.55;2.63;;;;;;;3.12;48.24;101044.06;5005794;28;20633;-68
2022/11/20 10:42:55;;;;;;;3.63;2.25;;;;;;;2.97;47.89;101047.59;5003835;28;20285;-67
2022/11/20 10:45:24;;;;;;;5.60;1.60;;;;;;;3.04;48.25;101045.84;5017884;28;20044;-70
2022/11/20 10:48:12;;;;;;;6.25;2.70;;;;;;;2.92;48.18;101045.94;5017876;28;20076;-69
2022/11/20 10:50:49;;;;;;;3.85;2.10;;;;;;;2.62;48.74;101047.75;5013603;28;20037;-69
2022/11/20 10:53:28;;;;;;;2.20;1.70;;;;;;;2.40;48.53;101043.56;5008112;28;20041;-70
2022/11/20 10:56:05;;;;;;;6.03;2.13;;;;;;;2.20;49.43;101041.03;5000686;28;20434;-68
2022/11/20 10:58:48;;;;;;;8.40;3.22;;;;;;;2.09;49.71;101030.75;4999517;28;20037;-68
2022/11/20 11:01:18;;;;;;;4.53;2.80;;;;;;;2.12;49.01;101025.59;4990413;28;20351;-69
2022/11/20 11:03:44;;;;;;;4.47;2.53;;;;;;;1.71;49.05;101036.81;5007644;28;20052;-69
2022/11/20 11:06:39;;;;;;;5.35;2.60;;;;;;;1.88;50.16;101032.50;5020445;28;20032;-69
2022/11/20 11:09:16;;;;;;;4.63;2.42;;;;;;;2.13;49.21;101028.16;5016899;28;20103;-68
2022/11/20 11:11:43;;;;;;;8.55;2.53;;;;;;;1.94;49.35;101032.50;5016163;28;20542;-70
2022/11/20 11:14:12;;;;;;;5.13;3.05;;;;;;;2.32;48.98;101018.66;5006202;28;20031;-69
2022/11/20 11:16:57;;;;;;;6.38;2.75;;;;;;;2.68;47.43;101019.34;5016078;28;20090;-69
2022/11/20 11:19:24;;;;;;;6.43;3.00;;;;;;;3.00;47.88;101010.56;5002337;28;20033;-69
2022/11/20 11:21:54;;;;;;;4.45;3.20;;;;;;;3.36;47.54;101009.50;5000568;28;20154;-69
2022/11/20 11:24:26;;;;;;;5.25;3.15;;;;;;;3.37;46.85;101002.59;5016706;28;20084;-68
2022/11/20 11:27:06;;;;;;;6.95;2.78;;;;;;;3.66;46.88;101004.09;5023639;28;20557;-68
2022/11/20 11:29:33;;;;;;;4.47;2.22;;;;;;;3.85;46.55;100994.41;5023303;28;20041;-69
2022/11/20 11:32:12;;;;;;;5.03;2.55;;;;;;;4.42;45.12;100998.06;5007541;28;20053;-69
2022/11/20 11:34:38;;;;;;;7.43;2.60;;;;;;;5.03;42.61;100993.84;5003033;28;20036;-68
2022/11/20 11:37:04;;;;;;;5.82;3.00;;;;;;;5.15;43.41;100985.03;5021630;28;20045;-69
2022/11/20 11:39:33;;;;;;;6.80;2.70;;;;;;;5.04;43.74;100989.53;5021451;28;20046;-69
2022/11/20 11:42:00;;;;;;;4.00;2.42;;;;;;;4.81;42.69;100984.63;4999152;28;20037;-69
2022/11/20 11:47:44;;;;;;;3.58;2.45;;;;;;;4.12;43.67;100990.66;5020375;28;20051;-68
2022/11/20 11:50:26;;;;;;;5.80;3.35;;;;;;;3.71;45.03;100989.38;5013921;28;20051;-69
2022/11/20 11:52:56;;;;;;;5.00;2.85;;;;;;;3.77;44.38;100987.59;5001776;28;20050;-69
2022/11/20 11:55:45;;;;;;;5.72;3.50;;;;;;;3.54;45.27;100982.66;4994207;28;20142;-69